This is the latest recevied weather packets stored in our database for station/object N4CRH-13. If no packets are shown the sender has not sent any weather packets the latest 10 day(s).
| Time | Temp. | Humidity | Pressure | Rain* | Wind** | Luminosity | Snow |
|---|---|---|---|---|---|---|---|
| 1778163017 | 6.67° C | 50% | 1296.2 hPa | 0 mm | - | 263 W/m² | - |
| 1778162715 | 6.67° C | 54% | 1296.2 hPa | 0 mm | - | 249 W/m² | - |
| 1778162412 | 5.56° C | 62% | 1296.2 hPa | 0 mm | - | 234 W/m² | - |
| 1778162108 | 6.67° C | 63% | 1296.3 hPa | 0 mm | - | 218 W/m² | - |
| 1778161806 | 5.56° C | 57% | 1296.3 hPa | 0 mm | - | 204 W/m² | - |
| 1778161502 | 5.56° C | 62% | 1296.2 hPa | 0 mm | - | 189 W/m² | - |
| 1778161198 | 4.44° C | 61% | 1296.2 hPa | 0 mm | - | 174 W/m² | - |
| 1778160894 | 5° C | 70% | 1296.2 hPa | 0 mm | - | 167 W/m² | - |
| 1778160593 | 5° C | 65% | 1296 hPa | 0 mm | - | 149 W/m² | - |
| 1778160288 | 4.44° C | 69% | 1295.9 hPa | 0 mm | - | 134 W/m² | - |
| 1778159985 | 3.89° C | 67% | 1295.9 hPa | 0 mm | - | 122 W/m² | - |
| 1778159682 | 4.44° C | 53% | 1295.9 hPa | 0 mm | - | 109 W/m² | - |
| 1778159379 | 4.44° C | 59% | 1295.7 hPa | 0 mm | - | 97 W/m² | - |
| 1778159076 | 3.33° C | 59% | 1295.7 hPa | 0 mm | - | 85 W/m² | - |
| 1778158775 | 3.89° C | 47% | 1295.8 hPa | 0 mm | - | 74 W/m² | - |
| 1778158473 | 3.33° C | 54% | 1295.8 hPa | 0 mm | - | 60 W/m² | - |
| 1778158170 | 2.78° C | 62% | 1295.8 hPa | 0 mm | - | 48 W/m² | - |
| 1778157865 | 2.78° C | 59% | 1295.4 hPa | 0 mm | - | 54 W/m² | - |
| 1778157564 | 3.33° C | 55% | 1295.4 hPa | 0 mm | - | 23 W/m² | - |
| 1778157262 | 4.44° C | 50% | 1295.3 hPa | 0 mm | - | 20 W/m² | - |
| 1778156958 | 4.44° C | 49% | 1295.3 hPa | 0 mm | - | 18 W/m² | - |
| 1778156653 | 3.89° C | 52% | 1295.2 hPa | 0 mm | - | 15 W/m² | - |
| 1778156349 | 3.89° C | 52% | 1295.3 hPa | 0 mm | - | 12 W/m² | - |
| 1778156044 | 0.56° C | 64% | 1295.4 hPa | 0 mm | - | 10 W/m² | - |
| 1778155742 | -2.22° C | 88% | 1295.4 hPa | 0 mm | - | 8 W/m² | - |
* Rain latest hour (hover to see other rain measurements)
** Current wind speed in m/s (hover to see current wind gust speed)